sensor_id;sensor_type;location;lat;lon;timestamp;P1;durP1;ratioP1;P2;durP2;ratioP2
25045;SDS011;13044;49.304;12.840;2022-08-19T00:01:53;12.85;;;11.00;;
25045;SDS011;13044;49.304;12.840;2022-08-19T00:04:25;16.15;;;12.05;;
25045;SDS011;13044;49.304;12.840;2022-08-19T00:06:56;12.07;;;10.77;;
25045;SDS011;13044;49.304;12.840;2022-08-19T00:09:24;13.93;;;11.73;;
25045;SDS011;13044;49.304;12.840;2022-08-19T00:11:51;14.05;;;10.38;;
25045;SDS011;13044;49.304;12.840;2022-08-19T00:14:23;15.60;;;9.13;;
25045;SDS011;13044;49.304;12.840;2022-08-19T00:16:51;16.90;;;11.07;;
25045;SDS011;13044;49.304;12.840;2022-08-19T00:19:20;13.93;;;10.45;;
25045;SDS011;13044;49.304;12.840;2022-08-19T00:21:49;11.15;;;8.85;;
25045;SDS011;13044;49.304;12.840;2022-08-19T00:24:16;15.80;;;10.63;;
25045;SDS011;13044;49.304;12.840;2022-08-19T00:26:43;15.82;;;10.18;;
25045;SDS011;13044;49.304;12.840;2022-08-19T00:29:12;11.52;;;7.90;;
25045;SDS011;13044;49.304;12.840;2022-08-19T00:31:43;9.13;;;7.72;;
25045;SDS011;13044;49.304;12.840;2022-08-19T00:34:11;10.13;;;8.45;;
25045;SDS011;13044;49.304;12.840;2022-08-19T00:36:41;9.85;;;7.68;;
25045;SDS011;13044;49.304;12.840;2022-08-19T00:39:08;10.27;;;6.82;;
25045;SDS011;13044;49.304;12.840;2022-08-19T00:41:37;9.95;;;7.50;;
25045;SDS011;13044;49.304;12.840;2022-08-19T00:46:39;7.90;;;6.93;;
25045;SDS011;13044;49.304;12.840;2022-08-19T00:49:34;8.13;;;7.22;;
25045;SDS011;13044;49.304;12.840;2022-08-19T00:52:25;9.57;;;6.93;;
25045;SDS011;13044;49.304;12.840;2022-08-19T00:54:58;12.32;;;7.68;;
25045;SDS011;13044;49.304;12.840;2022-08-19T00:57:33;10.40;;;8.60;;
25045;SDS011;13044;49.304;12.840;2022-08-19T01:00:05;8.85;;;7.97;;
25045;SDS011;13044;49.304;12.840;2022-08-19T01:02:39;10.15;;;7.72;;
25045;SDS011;13044;49.304;12.840;2022-08-19T01:05:08;14.20;;;8.70;;
25045;SDS011;13044;49.304;12.840;2022-08-19T01:07:39;15.47;;;8.80;;
25045;SDS011;13044;49.304;12.840;2022-08-19T01:10:08;15.98;;;10.18;;
25045;SDS011;13044;49.304;12.840;2022-08-19T01:12:39;13.57;;;10.40;;
25045;SDS011;13044;49.304;12.840;2022-08-19T01:15:07;13.43;;;10.07;;
25045;SDS011;13044;49.304;12.840;2022-08-19T01:17:38;12.85;;;7.95;;
25045;SDS011;13044;49.304;12.840;2022-08-19T01:20:10;11.15;;;7.53;;
25045;SDS011;13044;49.304;12.840;2022-08-19T01:22:47;8.68;;;7.05;;
25045;SDS011;13044;49.304;12.840;2022-08-19T01:25:27;9.63;;;7.30;;
25045;SDS011;13044;49.304;12.840;2022-08-19T01:27:58;10.45;;;7.80;;
25045;SDS011;13044;49.304;12.840;2022-08-19T01:30:36;11.50;;;7.55;;
25045;SDS011;13044;49.304;12.840;2022-08-19T01:33:03;12.55;;;7.22;;
25045;SDS011;13044;49.304;12.840;2022-08-19T01:35:31;11.25;;;7.15;;
25045;SDS011;13044;49.304;12.840;2022-08-19T01:38:00;13.57;;;7.28;;
25045;SDS011;13044;49.304;12.840;2022-08-19T01:40:36;8.20;;;7.32;;
25045;SDS011;13044;49.304;12.840;2022-08-19T01:43:06;15.10;;;7.95;;
25045;SDS011;13044;49.304;12.840;2022-08-19T01:45:33;12.25;;;7.47;;
25045;SDS011;13044;49.304;12.840;2022-08-19T01:48:02;10.43;;;7.68;;
25045;SDS011;13044;49.304;12.840;2022-08-19T01:50:30;10.25;;;7.93;;
25045;SDS011;13044;49.304;12.840;2022-08-19T01:52:59;11.88;;;8.52;;
25045;SDS011;13044;49.304;12.840;2022-08-19T01:55:33;12.75;;;8.68;;
25045;SDS011;13044;49.304;12.840;2022-08-19T01:58:07;12.90;;;8.48;;
25045;SDS011;13044;49.304;12.840;2022-08-19T02:00:45;15.85;;;8.05;;
25045;SDS011;13044;49.304;12.840;2022-08-19T02:03:12;11.43;;;7.90;;
25045;SDS011;13044;49.304;12.840;2022-08-19T02:05:40;11.60;;;8.32;;
25045;SDS011;13044;49.304;12.840;2022-08-19T02:08:08;16.77;;;8.95;;
25045;SDS011;13044;49.304;12.840;2022-08-19T02:10:37;11.70;;;8.30;;
25045;SDS011;13044;49.304;12.840;2022-08-19T02:13:09;9.63;;;8.10;;
25045;SDS011;13044;49.304;12.840;2022-08-19T02:15:38;12.57;;;8.75;;
25045;SDS011;13044;49.304;12.840;2022-08-19T02:18:06;12.32;;;8.20;;
25045;SDS011;13044;49.304;12.840;2022-08-19T02:20:34;10.77;;;7.63;;
25045;SDS011;13044;49.304;12.840;2022-08-19T02:23:04;14.48;;;8.23;;
25045;SDS011;13044;49.304;12.840;2022-08-19T02:25:39;11.05;;;8.18;;
25045;SDS011;13044;49.304;12.840;2022-08-19T02:28:06;11.70;;;8.43;;
25045;SDS011;13044;49.304;12.840;2022-08-19T02:30:33;12.55;;;8.65;;
25045;SDS011;13044;49.304;12.840;2022-08-19T02:33:00;12.70;;;8.40;;
25045;SDS011;13044;49.304;12.840;2022-08-19T02:35:27;14.95;;;8.18;;
25045;SDS011;13044;49.304;12.840;2022-08-19T02:37:54;11.48;;;8.02;;
25045;SDS011;13044;49.304;12.840;2022-08-19T02:40:39;13.18;;;7.82;;
25045;SDS011;13044;49.304;12.840;2022-08-19T02:43:07;17.20;;;7.93;;
25045;SDS011;13044;49.304;12.840;2022-08-19T02:45:36;11.43;;;7.88;;
25045;SDS011;13044;49.304;12.840;2022-08-19T02:48:07;9.77;;;8.77;;
25045;SDS011;13044;49.304;12.840;2022-08-19T02:50:47;14.90;;;8.07;;
25045;SDS011;13044;49.304;12.840;2022-08-19T02:53:21;12.50;;;8.60;;
25045;SDS011;13044;49.304;12.840;2022-08-19T02:55:52;17.83;;;8.40;;
25045;SDS011;13044;49.304;12.840;2022-08-19T02:58:20;17.27;;;8.68;;
25045;SDS011;13044;49.304;12.840;2022-08-19T03:00:49;13.35;;;9.32;;
25045;SDS011;13044;49.304;12.840;2022-08-19T03:03:19;12.88;;;8.93;;
25045;SDS011;13044;49.304;12.840;2022-08-19T03:05:47;12.00;;;8.13;;
25045;SDS011;13044;49.304;12.840;2022-08-19T03:08:22;13.90;;;8.77;;
25045;SDS011;13044;49.304;12.840;2022-08-19T03:10:51;16.63;;;10.13;;
25045;SDS011;13044;49.304;12.840;2022-08-19T03:13:19;11.88;;;8.85;;
25045;SDS011;13044;49.304;12.840;2022-08-19T03:15:47;16.30;;;8.25;;
25045;SDS011;13044;49.304;12.840;2022-08-19T03:18:14;10.90;;;8.43;;
25045;SDS011;13044;49.304;12.840;2022-08-19T03:20:44;12.00;;;8.82;;
25045;SDS011;13044;49.304;12.840;2022-08-19T03:23:15;14.40;;;9.13;;
25045;SDS011;13044;49.304;12.840;2022-08-19T03:25:44;12.07;;;9.48;;
25045;SDS011;13044;49.304;12.840;2022-08-19T03:28:34;14.63;;;8.85;;
25045;SDS011;13044;49.304;12.840;2022-08-19T03:31:10;10.55;;;8.20;;
25045;SDS011;13044;49.304;12.840;2022-08-19T03:33:59;9.25;;;7.53;;
25045;SDS011;13044;49.304;12.840;2022-08-19T03:36:28;16.23;;;8.52;;
25045;SDS011;13044;49.304;12.840;2022-08-19T03:38:56;12.63;;;8.98;;
25045;SDS011;13044;49.304;12.840;2022-08-19T03:41:27;13.48;;;9.23;;
25045;SDS011;13044;49.304;12.840;2022-08-19T03:44:12;11.43;;;8.65;;
25045;SDS011;13044;49.304;12.840;2022-08-19T03:46:44;16.05;;;9.52;;
25045;SDS011;13044;49.304;12.840;2022-08-19T03:49:16;16.92;;;9.63;;
25045;SDS011;13044;49.304;12.840;2022-08-19T03:51:45;12.25;;;9.70;;
25045;SDS011;13044;49.304;12.840;2022-08-19T03:54:14;19.20;;;9.93;;
25045;SDS011;13044;49.304;12.840;2022-08-19T03:56:45;13.45;;;10.07;;
25045;SDS011;13044;49.304;12.840;2022-08-19T03:59:16;15.27;;;11.13;;
25045;SDS011;13044;49.304;12.840;2022-08-19T04:01:53;24.77;;;13.73;;
25045;SDS011;13044;49.304;12.840;2022-08-19T04:04:26;26.85;;;15.27;;
25045;SDS011;13044;49.304;12.840;2022-08-19T04:06:54;22.02;;;15.02;;
25045;SDS011;13044;49.304;12.840;2022-08-19T04:09:23;17.90;;;14.40;;
25045;SDS011;13044;49.304;12.840;2022-08-19T04:11:51;28.35;;;16.45;;
25045;SDS011;13044;49.304;12.840;2022-08-19T04:14:22;29.38;;;16.58;;
25045;SDS011;13044;49.304;12.840;2022-08-19T04:16:56;25.10;;;16.77;;
25045;SDS011;13044;49.304;12.840;2022-08-19T04:19:26;23.15;;;16.23;;
25045;SDS011;13044;49.304;12.840;2022-08-19T04:21:55;26.27;;;16.63;;
25045;SDS011;13044;49.304;12.840;2022-08-19T04:24:23;23.65;;;16.60;;
25045;SDS011;13044;49.304;12.840;2022-08-19T04:26:51;25.98;;;17.08;;
25045;SDS011;13044;49.304;12.840;2022-08-19T04:29:21;26.50;;;19.00;;
25045;SDS011;13044;49.304;12.840;2022-08-19T04:31:52;24.38;;;19.13;;
25045;SDS011;13044;49.304;12.840;2022-08-19T04:34:21;26.48;;;19.67;;
25045;SDS011;13044;49.304;12.840;2022-08-19T04:36:51;24.27;;;18.95;;
25045;SDS011;13044;49.304;12.840;2022-08-19T04:39:23;27.70;;;19.08;;
25045;SDS011;13044;49.304;12.840;2022-08-19T04:42:14;23.95;;;19.27;;
25045;SDS011;13044;49.304;12.840;2022-08-19T04:45:02;22.25;;;17.90;;
25045;SDS011;13044;49.304;12.840;2022-08-19T04:47:37;28.85;;;18.60;;
25045;SDS011;13044;49.304;12.840;2022-08-19T04:50:23;33.75;;;21.70;;
25045;SDS011;13044;49.304;12.840;2022-08-19T04:52:52;34.30;;;25.35;;
25045;SDS011;13044;49.304;12.840;2022-08-19T04:55:19;36.33;;;28.08;;
25045;SDS011;13044;49.304;12.840;2022-08-19T04:57:46;41.60;;;31.05;;
25045;SDS011;13044;49.304;12.840;2022-08-19T05:00:13;42.45;;;31.95;;
25045;SDS011;13044;49.304;12.840;2022-08-19T05:02:40;46.60;;;33.47;;
25045;SDS011;13044;49.304;12.840;2022-08-19T05:05:07;50.60;;;34.95;;
25045;SDS011;13044;49.304;12.840;2022-08-19T05:07:35;43.90;;;33.47;;
25045;SDS011;13044;49.304;12.840;2022-08-19T05:10:03;44.95;;;33.90;;
25045;SDS011;13044;49.304;12.840;2022-08-19T05:12:31;50.95;;;35.42;;
25045;SDS011;13044;49.304;12.840;2022-08-19T05:14:59;52.05;;;35.55;;
25045;SDS011;13044;49.304;12.840;2022-08-19T05:17:27;53.50;;;37.35;;
25045;SDS011;13044;49.304;12.840;2022-08-19T05:20:01;46.28;;;36.20;;
25045;SDS011;13044;49.304;12.840;2022-08-19T05:22:48;50.63;;;36.00;;
25045;SDS011;13044;49.304;12.840;2022-08-19T05:25:18;56.00;;;38.17;;
25045;SDS011;13044;49.304;12.840;2022-08-19T05:27:46;55.65;;;39.38;;
25045;SDS011;13044;49.304;12.840;2022-08-19T05:30:14;52.08;;;38.05;;
25045;SDS011;13044;49.304;12.840;2022-08-19T05:32:42;56.90;;;38.78;;
25045;SDS011;13044;49.304;12.840;2022-08-19T05:35:10;51.03;;;36.80;;
25045;SDS011;13044;49.304;12.840;2022-08-19T05:37:37;56.00;;;36.58;;
25045;SDS011;13044;49.304;12.840;2022-08-19T05:40:06;52.40;;;36.65;;
25045;SDS011;13044;49.304;12.840;2022-08-19T05:42:35;52.17;;;38.58;;
25045;SDS011;13044;49.304;12.840;2022-08-19T05:45:02;51.83;;;37.95;;
25045;SDS011;13044;49.304;12.840;2022-08-19T05:47:30;55.17;;;38.63;;
25045;SDS011;13044;49.304;12.840;2022-08-19T05:49:58;53.55;;;39.72;;
25045;SDS011;13044;49.304;12.840;2022-08-19T05:52:30;53.80;;;40.40;;
25045;SDS011;13044;49.304;12.840;2022-08-19T05:54:58;51.25;;;37.70;;
25045;SDS011;13044;49.304;12.840;2022-08-19T05:57:25;55.67;;;39.53;;
25045;SDS011;13044;49.304;12.840;2022-08-19T05:59:55;55.92;;;38.95;;
25045;SDS011;13044;49.304;12.840;2022-08-19T06:02:25;52.40;;;38.42;;
25045;SDS011;13044;49.304;12.840;2022-08-19T06:04:54;55.25;;;40.90;;
25045;SDS011;13044;49.304;12.840;2022-08-19T06:07:21;49.97;;;37.05;;
25045;SDS011;13044;49.304;12.840;2022-08-19T06:09:48;52.05;;;39.35;;
25045;SDS011;13044;49.304;12.840;2022-08-19T06:12:26;53.78;;;39.03;;
25045;SDS011;13044;49.304;12.840;2022-08-19T06:17:34;58.92;;;40.97;;
25045;SDS011;13044;49.304;12.840;2022-08-19T06:20:05;58.20;;;40.17;;
25045;SDS011;13044;49.304;12.840;2022-08-19T06:22:40;55.47;;;40.00;;
25045;SDS011;13044;49.304;12.840;2022-08-19T06:25:09;55.13;;;40.97;;
25045;SDS011;13044;49.304;12.840;2022-08-19T06:27:37;48.78;;;38.30;;
25045;SDS011;13044;49.304;12.840;2022-08-19T06:30:24;57.42;;;40.83;;
25045;SDS011;13044;49.304;12.840;2022-08-19T06:32:51;53.60;;;39.95;;
25045;SDS011;13044;49.304;12.840;2022-08-19T06:35:18;58.55;;;41.30;;
25045;SDS011;13044;49.304;12.840;2022-08-19T06:37:45;57.47;;;42.60;;
25045;SDS011;13044;49.304;12.840;2022-08-19T06:40:14;51.30;;;39.92;;
25045;SDS011;13044;49.304;12.840;2022-08-19T06:42:41;53.53;;;39.58;;
25045;SDS011;13044;49.304;12.840;2022-08-19T06:45:20;49.92;;;38.75;;
25045;SDS011;13044;49.304;12.840;2022-08-19T06:47:50;52.35;;;37.83;;
25045;SDS011;13044;49.304;12.840;2022-08-19T06:50:25;53.72;;;38.47;;
25045;SDS011;13044;49.304;12.840;2022-08-19T06:52:52;53.15;;;36.35;;
25045;SDS011;13044;49.304;12.840;2022-08-19T06:55:20;53.35;;;37.72;;
25045;SDS011;13044;49.304;12.840;2022-08-19T06:57:47;51.22;;;37.78;;
25045;SDS011;13044;49.304;12.840;2022-08-19T07:00:14;47.40;;;36.45;;
25045;SDS011;13044;49.304;12.840;2022-08-19T07:02:42;50.22;;;36.97;;
25045;SDS011;13044;49.304;12.840;2022-08-19T07:05:20;50.78;;;37.45;;
25045;SDS011;13044;49.304;12.840;2022-08-19T07:07:48;49.33;;;36.88;;
25045;SDS011;13044;49.304;12.840;2022-08-19T07:10:16;47.17;;;37.13;;
25045;SDS011;13044;49.304;12.840;2022-08-19T07:12:43;45.85;;;34.35;;
25045;SDS011;13044;49.304;12.840;2022-08-19T07:15:11;47.65;;;36.20;;
25045;SDS011;13044;49.304;12.840;2022-08-19T07:17:38;52.88;;;38.22;;
25045;SDS011;13044;49.304;12.840;2022-08-19T07:20:07;45.42;;;34.80;;
25045;SDS011;13044;49.304;12.840;2022-08-19T07:22:39;46.50;;;34.70;;
25045;SDS011;13044;49.304;12.840;2022-08-19T07:25:07;44.17;;;33.85;;
25045;SDS011;13044;49.304;12.840;2022-08-19T07:27:36;48.80;;;33.70;;
25045;SDS011;13044;49.304;12.840;2022-08-19T07:30:05;48.63;;;31.92;;
25045;SDS011;13044;49.304;12.840;2022-08-19T07:32:37;41.03;;;32.10;;
25045;SDS011;13044;49.304;12.840;2022-08-19T07:35:05;39.45;;;30.63;;
25045;SDS011;13044;49.304;12.840;2022-08-19T07:37:33;40.75;;;29.75;;
25045;SDS011;13044;49.304;12.840;2022-08-19T07:40:03;46.10;;;30.67;;
25045;SDS011;13044;49.304;12.840;2022-08-19T07:42:32;36.63;;;28.63;;
25045;SDS011;13044;49.304;12.840;2022-08-19T07:44:59;38.13;;;28.85;;
25045;SDS011;13044;49.304;12.840;2022-08-19T07:47:26;38.17;;;27.83;;
25045;SDS011;13044;49.304;12.840;2022-08-19T07:50:14;37.70;;;27.85;;
25045;SDS011;13044;49.304;12.840;2022-08-19T07:52:42;38.50;;;29.20;;
25045;SDS011;13044;49.304;12.840;2022-08-19T07:55:14;40.33;;;28.77;;
25045;SDS011;13044;49.304;12.840;2022-08-19T07:58:03;36.92;;;27.60;;
25045;SDS011;13044;49.304;12.840;2022-08-19T08:00:31;40.58;;;29.75;;
25045;SDS011;13044;49.304;12.840;2022-08-19T08:02:58;39.15;;;28.85;;
25045;SDS011;13044;49.304;12.840;2022-08-19T08:05:25;42.85;;;31.23;;
25045;SDS011;13044;49.304;12.840;2022-08-19T08:08:11;37.80;;;30.58;;
25045;SDS011;13044;49.304;12.840;2022-08-19T08:10:59;35.85;;;28.98;;
25045;SDS011;13044;49.304;12.840;2022-08-19T08:13:27;39.53;;;29.77;;
25045;SDS011;13044;49.304;12.840;2022-08-19T08:15:54;37.58;;;29.77;;
25045;SDS011;13044;49.304;12.840;2022-08-19T08:18:23;37.35;;;30.85;;
25045;SDS011;13044;49.304;12.840;2022-08-19T08:23:23;39.28;;;31.20;;
25045;SDS011;13044;49.304;12.840;2022-08-19T08:25:52;44.28;;;31.92;;
25045;SDS011;13044;49.304;12.840;2022-08-19T08:28:23;42.30;;;32.05;;
25045;SDS011;13044;49.304;12.840;2022-08-19T08:30:55;38.00;;;30.63;;
25045;SDS011;13044;49.304;12.840;2022-08-19T08:33:24;38.25;;;30.63;;
25045;SDS011;13044;49.304;12.840;2022-08-19T08:36:06;39.88;;;30.45;;
25045;SDS011;13044;49.304;12.840;2022-08-19T08:38:35;42.00;;;31.17;;
25045;SDS011;13044;49.304;12.840;2022-08-19T08:44:11;41.28;;;29.70;;
25045;SDS011;13044;49.304;12.840;2022-08-19T08:46:50;38.67;;;28.15;;
25045;SDS011;13044;49.304;12.840;2022-08-19T08:49:36;37.08;;;30.02;;
25045;SDS011;13044;49.304;12.840;2022-08-19T08:55:14;35.95;;;28.58;;
25045;SDS011;13044;49.304;12.840;2022-08-19T09:00:29;36.15;;;29.33;;
25045;SDS011;13044;49.304;12.840;2022-08-19T09:03:02;37.78;;;28.10;;
25045;SDS011;13044;49.304;12.840;2022-08-19T09:11:25;35.75;;;28.17;;
25045;SDS011;13044;49.304;12.840;2022-08-19T09:17:18;33.20;;;26.77;;
25045;SDS011;13044;49.304;12.840;2022-08-19T09:19:57;34.33;;;25.80;;
25045;SDS011;13044;49.304;12.840;2022-08-19T09:22:51;31.80;;;24.80;;
25045;SDS011;13044;49.304;12.840;2022-08-19T09:25:20;31.02;;;25.20;;
25045;SDS011;13044;49.304;12.840;2022-08-19T09:27:54;32.72;;;26.45;;
25045;SDS011;13044;49.304;12.840;2022-08-19T09:30:29;37.22;;;26.60;;
25045;SDS011;13044;49.304;12.840;2022-08-19T09:32:59;35.00;;;26.15;;
25045;SDS011;13044;49.304;12.840;2022-08-19T09:35:27;36.38;;;26.50;;
25045;SDS011;13044;49.304;12.840;2022-08-19T09:37:56;34.40;;;25.23;;
25045;SDS011;13044;49.304;12.840;2022-08-19T09:40:28;29.60;;;19.23;;
25045;SDS011;13044;49.304;12.840;2022-08-19T09:43:03;16.35;;;13.52;;
25045;SDS011;13044;49.304;12.840;2022-08-19T09:45:38;16.00;;;12.27;;
25045;SDS011;13044;49.304;12.840;2022-08-19T09:48:05;14.98;;;11.73;;
25045;SDS011;13044;49.304;12.840;2022-08-19T09:50:34;14.95;;;11.43;;
25045;SDS011;13044;49.304;12.840;2022-08-19T09:53:17;15.57;;;13.20;;
25045;SDS011;13044;49.304;12.840;2022-08-19T09:55:44;17.30;;;13.52;;
25045;SDS011;13044;49.304;12.840;2022-08-19T09:58:11;16.05;;;13.35;;
25045;SDS011;13044;49.304;12.840;2022-08-19T10:00:38;14.30;;;12.40;;
25045;SDS011;13044;49.304;12.840;2022-08-19T10:03:05;15.13;;;11.45;;
25045;SDS011;13044;49.304;12.840;2022-08-19T10:05:33;13.93;;;12.00;;
25045;SDS011;13044;49.304;12.840;2022-08-19T10:08:24;14.75;;;11.30;;
25045;SDS011;13044;49.304;12.840;2022-08-19T10:10:55;14.85;;;11.25;;
25045;SDS011;13044;49.304;12.840;2022-08-19T10:13:26;12.00;;;10.80;;
25045;SDS011;13044;49.304;12.840;2022-08-19T10:16:04;14.50;;;11.20;;
25045;SDS011;13044;49.304;12.840;2022-08-19T10:18:36;10.77;;;9.18;;
25045;SDS011;13044;49.304;12.840;2022-08-19T10:21:13;9.55;;;8.27;;
25045;SDS011;13044;49.304;12.840;2022-08-19T10:23:51;7.97;;;7.18;;
25045;SDS011;13044;49.304;12.840;2022-08-19T10:26:26;9.43;;;7.87;;
25045;SDS011;13044;49.304;12.840;2022-08-19T10:28:57;11.90;;;6.88;;
25045;SDS011;13044;49.304;12.840;2022-08-19T10:31:29;9.77;;;6.75;;
25045;SDS011;13044;49.304;12.840;2022-08-19T10:34:19;7.28;;;6.22;;
25045;SDS011;13044;49.304;12.840;2022-08-19T10:36:52;6.97;;;6.28;;
25045;SDS011;13044;49.304;12.840;2022-08-19T10:39:26;20.10;;;11.85;;
25045;SDS011;13044;49.304;12.840;2022-08-19T10:41:57;17.52;;;10.32;;
25045;SDS011;13044;49.304;12.840;2022-08-19T10:44:25;12.60;;;8.63;;
25045;SDS011;13044;49.304;12.840;2022-08-19T10:49:25;13.70;;;7.82;;
25045;SDS011;13044;49.304;12.840;2022-08-19T10:51:53;7.88;;;7.07;;
25045;SDS011;13044;49.304;12.840;2022-08-19T10:54:46;7.90;;;7.10;;
25045;SDS011;13044;49.304;12.840;2022-08-19T10:57:33;8.40;;;7.03;;
25045;SDS011;13044;49.304;12.840;2022-08-19T11:00:21;8.07;;;7.28;;
25045;SDS011;13044;49.304;12.840;2022-08-19T11:02:50;8.43;;;7.05;;
25045;SDS011;13044;49.304;12.840;2022-08-19T11:05:18;12.57;;;8.13;;
25045;SDS011;13044;49.304;12.840;2022-08-19T11:07:49;10.17;;;8.00;;
25045;SDS011;13044;49.304;12.840;2022-08-19T11:10:18;11.32;;;7.00;;
25045;SDS011;13044;49.304;12.840;2022-08-19T11:12:47;12.18;;;7.65;;
25045;SDS011;13044;49.304;12.840;2022-08-19T11:15:14;7.65;;;6.82;;
25045;SDS011;13044;49.304;12.840;2022-08-19T11:17:42;8.40;;;6.55;;
25045;SDS011;13044;49.304;12.840;2022-08-19T11:20:13;9.52;;;7.25;;
25045;SDS011;13044;49.304;12.840;2022-08-19T11:22:41;10.55;;;6.97;;
25045;SDS011;13044;49.304;12.840;2022-08-19T11:25:09;8.45;;;6.50;;
25045;SDS011;13044;49.304;12.840;2022-08-19T11:27:40;8.10;;;6.30;;
25045;SDS011;13044;49.304;12.840;2022-08-19T11:30:12;8.35;;;6.70;;
25045;SDS011;13044;49.304;12.840;2022-08-19T11:32:40;9.02;;;6.70;;
25045;SDS011;13044;49.304;12.840;2022-08-19T11:35:14;8.90;;;6.22;;
25045;SDS011;13044;49.304;12.840;2022-08-19T11:37:47;8.00;;;6.70;;
25045;SDS011;13044;49.304;12.840;2022-08-19T11:40:15;10.18;;;6.35;;
25045;SDS011;13044;49.304;12.840;2022-08-19T11:42:42;6.72;;;6.03;;
25045;SDS011;13044;49.304;12.840;2022-08-19T11:45:26;6.85;;;6.15;;
25045;SDS011;13044;49.304;12.840;2022-08-19T11:47:55;7.50;;;5.50;;
25045;SDS011;13044;49.304;12.840;2022-08-19T11:50:23;6.45;;;5.85;;
25045;SDS011;13044;49.304;12.840;2022-08-19T11:52:53;7.10;;;5.85;;
25045;SDS011;13044;49.304;12.840;2022-08-19T11:55:22;7.03;;;6.32;;
25045;SDS011;13044;49.304;12.840;2022-08-19T11:57:49;9.32;;;6.47;;
25045;SDS011;13044;49.304;12.840;2022-08-19T12:00:16;7.07;;;6.38;;
25045;SDS011;13044;49.304;12.840;2022-08-19T12:02:43;6.10;;;5.50;;
25045;SDS011;13044;49.304;12.840;2022-08-19T12:05:10;7.75;;;5.72;;
25045;SDS011;13044;49.304;12.840;2022-08-19T12:07:38;8.13;;;6.32;;
25045;SDS011;13044;49.304;12.840;2022-08-19T12:10:09;6.38;;;5.72;;
25045;SDS011;13044;49.304;12.840;2022-08-19T12:12:36;6.63;;;5.90;;
25045;SDS011;13044;49.304;12.840;2022-08-19T12:15:09;7.43;;;6.00;;
25045;SDS011;13044;49.304;12.840;2022-08-19T12:17:37;7.68;;;5.90;;
25045;SDS011;13044;49.304;12.840;2022-08-19T12:20:04;6.28;;;5.63;;
25045;SDS011;13044;49.304;12.840;2022-08-19T12:22:34;10.35;;;6.05;;
25045;SDS011;13044;49.304;12.840;2022-08-19T12:25:03;9.85;;;6.20;;
25045;SDS011;13044;49.304;12.840;2022-08-19T12:27:32;9.02;;;5.70;;
25045;SDS011;13044;49.304;12.840;2022-08-19T12:30:07;6.63;;;5.82;;
25045;SDS011;13044;49.304;12.840;2022-08-19T12:32:38;7.20;;;6.05;;
25045;SDS011;13044;49.304;12.840;2022-08-19T12:35:06;7.40;;;6.55;;
25045;SDS011;13044;49.304;12.840;2022-08-19T12:37:35;11.38;;;6.70;;
25045;SDS011;13044;49.304;12.840;2022-08-19T12:40:02;7.78;;;6.88;;
25045;SDS011;13044;49.304;12.840;2022-08-19T12:42:30;7.70;;;6.50;;
25045;SDS011;13044;49.304;12.840;2022-08-19T12:44:57;7.43;;;6.10;;
25045;SDS011;13044;49.304;12.840;2022-08-19T12:47:24;9.57;;;6.32;;
25045;SDS011;13044;49.304;12.840;2022-08-19T12:49:52;8.40;;;6.55;;
25045;SDS011;13044;49.304;12.840;2022-08-19T12:52:25;8.98;;;7.43;;
25045;SDS011;13044;49.304;12.840;2022-08-19T12:54:54;9.40;;;7.13;;
25045;SDS011;13044;49.304;12.840;2022-08-19T12:57:23;8.25;;;7.15;;
25045;SDS011;13044;49.304;12.840;2022-08-19T13:00:12;8.90;;;7.57;;
25045;SDS011;13044;49.304;12.840;2022-08-19T13:02:44;9.25;;;8.25;;
25045;SDS011;13044;49.304;12.840;2022-08-19T13:05:14;9.20;;;7.80;;
25045;SDS011;13044;49.304;12.840;2022-08-19T13:07:49;9.05;;;7.70;;
25045;SDS011;13044;49.304;12.840;2022-08-19T13:10:19;8.60;;;7.72;;
25045;SDS011;13044;49.304;12.840;2022-08-19T13:12:48;11.23;;;8.52;;
25045;SDS011;13044;49.304;12.840;2022-08-19T13:15:18;8.93;;;8.02;;
25045;SDS011;13044;49.304;12.840;2022-08-19T13:17:50;9.48;;;7.45;;
25045;SDS011;13044;49.304;12.840;2022-08-19T13:20:19;13.43;;;7.90;;
25045;SDS011;13044;49.304;12.840;2022-08-19T13:22:47;8.32;;;7.50;;
25045;SDS011;13044;49.304;12.840;2022-08-19T13:25:15;8.52;;;7.72;;
25045;SDS011;13044;49.304;12.840;2022-08-19T13:27:45;12.45;;;8.15;;
25045;SDS011;13044;49.304;12.840;2022-08-19T13:30:14;10.25;;;7.38;;
25045;SDS011;13044;49.304;12.840;2022-08-19T13:33:01;9.10;;;7.90;;
25045;SDS011;13044;49.304;12.840;2022-08-19T13:38:12;11.05;;;8.38;;
25045;SDS011;13044;49.304;12.840;2022-08-19T13:40:41;10.77;;;8.50;;
25045;SDS011;13044;49.304;12.840;2022-08-19T13:43:08;9.27;;;8.38;;
25045;SDS011;13044;49.304;12.840;2022-08-19T13:45:52;9.85;;;7.85;;
25045;SDS011;13044;49.304;12.840;2022-08-19T13:48:22;10.13;;;9.00;;
25045;SDS011;13044;49.304;12.840;2022-08-19T13:50:52;12.43;;;8.73;;
25045;SDS011;13044;49.304;12.840;2022-08-19T13:53:20;11.55;;;9.90;;
25045;SDS011;13044;49.304;12.840;2022-08-19T13:55:47;12.65;;;9.20;;
25045;SDS011;13044;49.304;12.840;2022-08-19T13:58:14;10.73;;;8.20;;
25045;SDS011;13044;49.304;12.840;2022-08-19T14:00:42;16.25;;;9.52;;
25045;SDS011;13044;49.304;12.840;2022-08-19T14:03:13;10.40;;;8.93;;
25045;SDS011;13044;49.304;12.840;2022-08-19T14:05:40;10.65;;;8.93;;
25045;SDS011;13044;49.304;12.840;2022-08-19T14:08:07;12.48;;;9.70;;
25045;SDS011;13044;49.304;12.840;2022-08-19T14:10:35;13.73;;;11.18;;
25045;SDS011;13044;49.304;12.840;2022-08-19T14:13:02;16.33;;;9.82;;
25045;SDS011;13044;49.304;12.840;2022-08-19T14:15:30;12.68;;;10.70;;
25045;SDS011;13044;49.304;12.840;2022-08-19T14:17:57;13.35;;;10.23;;
25045;SDS011;13044;49.304;12.840;2022-08-19T14:20:24;11.50;;;9.85;;
25045;SDS011;13044;49.304;12.840;2022-08-19T14:22:52;12.13;;;10.35;;
25045;SDS011;13044;49.304;12.840;2022-08-19T14:25:24;12.40;;;9.13;;
25045;SDS011;13044;49.304;12.840;2022-08-19T14:27:54;10.70;;;9.10;;
25045;SDS011;13044;49.304;12.840;2022-08-19T14:30:24;10.52;;;9.32;;
25045;SDS011;13044;49.304;12.840;2022-08-19T14:32:55;11.63;;;8.63;;
25045;SDS011;13044;49.304;12.840;2022-08-19T14:35:24;10.73;;;8.35;;
25045;SDS011;13044;49.304;12.840;2022-08-19T14:37:53;10.65;;;8.55;;
25045;SDS011;13044;49.304;12.840;2022-08-19T14:40:22;11.07;;;8.60;;
25045;SDS011;13044;49.304;12.840;2022-08-19T14:43:02;10.15;;;8.52;;
25045;SDS011;13044;49.304;12.840;2022-08-19T14:45:31;9.77;;;8.45;;
25045;SDS011;13044;49.304;12.840;2022-08-19T14:48:03;10.20;;;8.45;;
25045;SDS011;13044;49.304;12.840;2022-08-19T14:50:31;10.15;;;8.25;;
25045;SDS011;13044;49.304;12.840;2022-08-19T14:53:00;8.93;;;8.02;;
25045;SDS011;13044;49.304;12.840;2022-08-19T14:55:40;10.43;;;7.72;;
25045;SDS011;13044;49.304;12.840;2022-08-19T14:58:09;8.85;;;7.10;;
25045;SDS011;13044;49.304;12.840;2022-08-19T15:00:55;10.18;;;7.95;;
25045;SDS011;13044;49.304;12.840;2022-08-19T15:03:26;7.95;;;7.22;;
25045;SDS011;13044;49.304;12.840;2022-08-19T15:05:54;8.38;;;7.57;;
25045;SDS011;13044;49.304;12.840;2022-08-19T15:08:23;8.95;;;7.97;;
25045;SDS011;13044;49.304;12.840;2022-08-19T15:10:51;10.52;;;7.50;;
25045;SDS011;13044;49.304;12.840;2022-08-19T15:13:18;9.63;;;7.30;;